x

Texas Tower #4 - 75 Nm East Of Long Beach, Nj (44066) Wave Buoy

10:50pm - Thu 30th Oct 2014 All times are EDT. -4 hours from GMT.

  • Sig Wave height 2.0ft
  • Swell Direction
  • Peak Period 4s
  • Average Period 4s
  • Wind
    11mph, 13mph gusts
  • Sea Temp 64°f
  • Air Temp 57°f
  • Sea Pressure 1015.4mb
  • Texas Tower #4 - 75 Nm East Of Long Beach, Nj
  • Texas Tower #4 - 75 Nm East Of Long Beach, Nj

More Historic Weather Station data

Upgrade to MSW Pro to gain access to the past 30 days of data for over 8000 Wavebouys and Weather Stations around the globe.

Join Pro

Comparision Forecast

View Surf forecast
   
Thu 10/30 10:50pm 2ft 4s 4s 11 13 mph 1015.4mb 64f 57f
9:50pm 2ft 4s 4s 11 16 mph 1015.4mb 64f 57f
8:50pm 2ft 7s 4s 11 16 mph 1015.3mb 64f 58f
7:50pm 2.5ft 8s 4s 13 18 mph 1015.2mb 64f 57f
6:50pm 2ft 4s 4s 13 18 mph 1014.9mb 64f 57f
5:50pm 2.5ft 7s 4s 13 18 mph 1014.4mb 64f 57f
4:50pm 2.5ft 7s 4s 13 18 mph 1014.1mb 64f 58f
3:50pm 2.5ft 8s 4s 13 16 mph 1013.9mb 65f 58f
2:50pm 2.5ft 8s 4s 13 18 mph 1013.7mb 65f 58f
1:50pm 2.5ft 8s  -  13 16 mph 1013.9mb 65f 59f
12:50pm 2.5ft 7s 5s 11 16 mph 1014.4mb 65f 59f
11:50am 2.5ft 6s 5s 4 7 mph 1015mb 64f 59f
10:50am 2.5ft 4s 4s 4 7 mph 1015mb 64f 59f
9:50am 2.5ft 5s 4s 7 9 mph 1015mb 64f 60f
8:50am 3ft 5s 4s 9 11 mph 1014.9mb 64f 59f
7:50am 3ft 6s 4s 9 11 mph 1014.4mb 64f 58f
6:50am 3.5ft 5s 4s 11 13 mph 1014.2mb 64f 58f
5:50am 3.5ft 5s 4s 16 18 mph 1013.4mb 64f 58f
4:50am 3.5ft 5s 4s 16 20 mph 1012.7mb 64f 58f
3:50am 4ft 6s 4s 18 22 mph 1012.6mb 65f 58f
2:50am 4ft 5s 4s 18 22 mph 1013.2mb 65f 59f
1:50am 4.5ft 5s 4s 20 25 mph 1012.7mb 65f 59f
12:50am 4.5ft 6s 5s 18 22 mph 1013mb 65f 59f
Wed 10/29 11:50pm 4.5ft 5s 5s 20 25 mph 1012.6mb 65f 58f
10:50pm 4.5ft 5s 5s 18 22 mph 1012.9mb 65f 61f
9:50pm 4.5ft 6s 5s 18 20 mph 1012.6mb 65f 62f
8:50pm 4ft 6s 5s 18 20 mph 1012.1mb 65f 63f
7:50pm 4.5ft 7s 5s 16 18 mph 1012mb 65f 64f
6:50pm 4.5ft 6s 5s 16 25 mph 1011.8mb 66f 64f
5:50pm 5ft 7s 5s 16 18 mph 1010.9mb 66f 65f
4:50pm 5ft 6s 5s 16 18 mph 1010.6mb 66f 65f
3:50pm 4.5ft 6s 5s 18 20 mph 1010.5mb 66f 65f
2:50pm 4.5ft 6s  -  18 20 mph 1010.4mb 66f 66f
1:50pm  -   -   -  16 18 mph 1010.8mb 66f 66f
12:50pm 5ft 6s 5s 18 20 mph 1011.5mb 66f 66f
11:50am 5ft 6s 5s 18 20 mph 1012.5mb 66f 67f
10:50am 5ft 6s 5s 20 25 mph 1012.7mb 65f 67f
9:50am 5ft 6s 5s 20 25 mph 1013.1mb 65f 66f
8:50am 5ft 6s 5s 20 25 mph 1013.5mb 65f 67f
7:50am 4.5ft 6s 5s 20 22 mph 1013.5mb 65f 67f
6:50am 5ft 6s 5s 20 27 mph 1013.7mb 65f 67f
5:50am 6ft 6s 5s 20 25 mph 1013.8mb 65f 67f
4:50am 5.5ft 6s 5s 20 25 mph 1013.8mb 65f 67f
3:50am 6ft 6s 5s 22 27 mph 1014mb 65f 67f
2:50am 6ft 6s 5s 20 25 mph 1014.4mb 65f 67f
1:50am 5ft 6s 5s 22 25 mph 1014.5mb 65f 67f
12:50am 5ft 6s 5s 22 25 mph 1014.6mb 65f 67f
Tue 10/28 11:50pm 5.5ft 6s 5s 22 25 mph 1014.8mb 65f 67f
10:50pm 5ft 5s 5s 20 25 mph 1015mb 65f 67f
9:50pm 4.5ft 6s 5s 20 25 mph 1015.2mb 65f 67f
8:50pm 4.5ft 6s 5s 20 22 mph 1015.4mb 65f 67f
7:50pm 4.5ft 6s 5s 16 20 mph 1016mb 64f 66f
6:50pm  -   -   -  18 20 mph 1016.2mb 64f 66f
5:50pm 5ft 6s 5s 16 18 mph 1016.1mb 64f 65f
4:50pm 5.5ft 6s 5s 18 22 mph 1016.1mb 64f 66f
3:50pm 5ft 6s 5s 20 25 mph 1016.1mb 64f 66f
2:50pm 4.5ft 5s 5s 20 25 mph 1016.3mb 64f 67f
1:50pm 4.5ft 6s 5s 20 25 mph 1016.4mb 64f 66f
12:50pm 4.5ft 5s 4s 20 25 mph 1017mb 64f 66f
11:50am 4ft 5s 4s 20 22 mph 1017.5mb 64f 66f
10:50am 3.5ft 4s 4s 20 25 mph 1017.9mb 64f 66f
9:50am 2.5ft 4s 4s 20 22 mph 1018mb 64f 66f
8:50am 2.5ft 4s 3s 18 20 mph 1018.3mb 64f 65f
7:50am 2ft 4s 3s 18 20 mph 1018.5mb 64f 64f
6:50am 1.6ft 3s 4s 16 18 mph 1018.6mb 64f 63f
5:50am 1.6ft 5s 4s 13 16 mph 1018.8mb 64f 63f
4:50am 2ft 5s 4s 11 13 mph 1018.4mb 64f 63f
3:50am 2.5ft 5s 4s 9 11 mph 1018.7mb 64f 63f
2:50am 2.5ft 4s 4s 7 9 mph 1018.7mb 64f 63f
1:50am 2ft 4s 4s 9 11 mph 1018.5mb 64f 62f
12:50am 2.5ft 4s 4s 11 13 mph 1018.2mb 64f 63f
Mon 10/27 11:50pm 2ft 4s 4s 11 13 mph 1017.8mb 64f 63f
10:50pm 2ft 5s 4s 11 13 mph 1017.6mb 64f 62f
9:50pm 2.5ft 5s 4s 11 16 mph 1017.8mb 65f 62f
8:50pm 2.5ft 5s 4s 13
mph
1017.4mb 65f 61f
7:50pm 3ft 5s 4s 13 16 mph 1017.1mb 65f 60f
6:50pm 3ft 6s 4s 13 16 mph 1016.6mb 65f 60f
5:50pm 4ft 6s 4s 16 20 mph 1016.4mb 65f 59f
4:50pm 4ft 6s 5s 16 18 mph 1015.9mb 65f 58f
3:50pm  -   -   -  16 20 mph 1015.8mb 64f 57f
2:50pm 4.5ft 6s 5s 20 22 mph 1015.4mb 65f 57f
1:50pm 4.5ft 6s 5s 18 22 mph 1015.5mb 65f 56f
12:50pm 5ft 6s 5s 18 22 mph 1015.6mb 64f 56f
11:50am 5ft 6s 5s 18 20 mph 1015.7mb 64f 56f
10:50am 5ft 6s 5s 18 22 mph 1015.4mb 64f 57f
9:50am 5.5ft 6s 5s 20 25 mph 1015mb 64f 57f
8:50am 5ft 6s 5s 20 25 mph 1014.5mb 64f 57f
7:50am 4.5ft 6s 5s 20 27 mph 1013.8mb 64f 57f
6:50am 4.5ft 6s 4s 20 25 mph 1012.9mb 64f 58f
5:50am 5ft 5s 5s 18 22 mph 1012.5mb 64f 58f
4:50am 4.5ft 6s 5s 20 25 mph 1011.6mb 64f 58f